Terminal Aerodrome Forecast
Issued by NWS

Home | Current Version | Previous Version | Text Only | Print | Product List | Glossary On
Versions: 1 2 3 4 5 6 7 8 9 10 11 12 13 14 15 16 17 18 19 20 21 22
000
FTUS44 KLZK 281330 AAA
TAFBPK
TAF AMD
KBPK 281330Z 2814/2912 00000KT P6SM SKC
     FM281500 32006KT P6SM VCTS SCT050CB
     FM290100 VRB03KT 3SM BR SCT012 BKN040
      TEMPO 2910/2912 1SM BR BKN012=

USA.gov is the U.S. government's official web portal to all federal, state and local government web resources and services.